Time;durP1;ratioP1;P1;durP2;ratioP2;P2;SDS_P1;SDS_P2;PMS_P1;PMS_P2;Temp;Humidity;BMP_temperature;BMP_pressure;BME280_temperature;BME280_humidity;BME280_pressure;Samples;Min_cycle;Max_cycle;Signal;HPM_P1;HPM_P2
2022/09/10 00:01:01;;;;;;;7.60;2.30;;;;;;;17.58;41.82;100886.44;1783389;80;20655;-78
2022/09/10 00:04:07;;;;;;;6.70;2.35;;;;;;;17.53;42.43;100882.59;1783428;80;21173;-77
2022/09/10 00:07:14;;;;;;;6.22;2.33;;;;;;;17.32;42.82;100883.61;1782534;80;21757;-78
2022/09/10 00:10:21;;;;;;;5.95;2.90;;;;;;;17.31;43.06;100878.61;1782186;80;21205;-77
2022/09/10 00:13:28;;;;;;;8.98;2.85;;;;;;;17.24;42.97;100871.33;1778543;80;21173;-77
2022/09/10 00:16:35;;;;;;;8.48;2.62;;;;;;;17.15;43.31;100865.66;1766717;81;21563;-76
2022/09/10 00:19:41;;;;;;;7.25;2.35;;;;;;;17.18;43.12;100859.73;1767108;81;21758;-77
2022/09/10 00:22:48;;;;;;;6.00;2.35;;;;;;;17.16;42.85;100859.06;1768283;81;21540;-77
2022/09/10 00:25:54;;;;;;;7.25;2.50;;;;;;;17.06;43.11;100860.30;1768075;81;21169;-76
2022/09/10 00:29:01;;;;;;;12.35;2.80;;;;;;;17.05;43.01;100857.22;1774506;80;21196;-77
2022/09/10 00:32:07;;;;;;;13.53;3.40;;;;;;;16.97;42.48;100851.86;1783380;80;21621;-78
2022/09/10 00:35:14;;;;;;;8.30;2.70;;;;;;;16.99;42.73;100856.66;1783330;80;21762;-76
2022/09/10 00:38:19;;;;;;;10.68;3.10;;;;;;;16.93;43.05;100853.32;1783384;80;21216;-77
2022/09/10 00:41:24;;;;;;;6.33;2.70;;;;;;;16.80;42.93;100860.18;1783269;80;21734;-77
2022/09/10 00:44:50;;;;;;;5.58;2.37;;;;;;;16.82;43.07;100848.38;1783324;80;21180;-77
2022/09/10 00:47:56;;;;;;;10.28;2.65;;;;;;;16.81;43.03;100840.63;1783087;80;21216;-77
2022/09/10 00:51:03;;;;;;;6.65;2.60;;;;;;;16.79;42.69;100848.78;1783195;80;21173;-79
2022/09/10 00:54:08;;;;;;;5.87;2.27;;;;;;;16.77;42.75;100846.23;1783168;80;21184;-77
2022/09/10 00:57:18;;;;;;;12.85;3.15;;;;;;;16.86;42.46;100853.83;1782975;80;21781;-77
2022/09/10 01:00:24;;;;;;;11.90;2.90;;;;;;;16.71;42.60;100851.16;1714649;82;21796;-78
2022/09/10 01:03:30;;;;;;;11.43;2.45;;;;;;;16.81;42.21;100846.69;1715025;82;21207;-77
2022/09/10 01:06:34;;;;;;;9.30;2.80;;;;;;;16.94;41.57;100844.00;1714726;83;21626;-77
2022/09/10 01:09:39;;;;;;;10.45;2.33;;;;;;;16.93;41.72;100845.03;1714580;82;21203;-77
2022/09/10 01:13:15;;;;;;;14.87;2.92;;;;;;;16.88;41.80;100842.03;1714787;83;21143;-77
2022/09/10 01:16:33;;;;;;;8.63;2.25;;;;;;;17.00;41.51;100841.78;1737256;82;21160;-77
2022/09/10 01:19:59;;;;;;;7.40;2.80;;;;;;;16.80;42.13;100846.37;1736646;81;21582;-76
2022/09/10 01:23:27;;;;;;;17.35;2.85;;;;;;;16.80;42.04;100835.31;1737517;82;21168;-76
2022/09/10 01:26:53;;;;;;;6.67;2.92;;;;;;;16.73;42.38;100830.27;1736958;82;21709;-77
2022/09/10 01:30:25;;;;;;;9.53;2.87;;;;;;;16.63;42.75;100827.00;1742874;82;21216;-77
2022/09/10 01:33:53;;;;;;;5.28;2.35;;;;;;;16.66;43.14;100827.98;1744407;82;21776;-76
2022/09/10 01:37:00;;;;;;;5.87;2.62;;;;;;;16.51;42.90;100817.03;1744269;82;21172;-76
2022/09/10 01:40:06;;;;;;;7.95;3.10;;;;;;;16.51;42.89;100817.03;1743098;82;21187;-76
2022/09/10 01:43:10;;;;;;;5.03;2.12;;;;;;;16.35;43.04;100819.59;1742896;82;21772;-76
2022/09/10 01:46:40;;;;;;;6.47;2.67;;;;;;;16.60;42.43;100826.86;1709543;84;21184;-76
2022/09/10 01:50:31;;;;;;;6.35;2.90;;;;;;;16.67;41.49;100817.25;1708765;84;21232;-77
2022/09/10 01:53:48;;;;;;;8.53;2.72;;;;;;;16.76;41.47;100816.06;1708055;84;21224;-77
2022/09/10 01:57:21;;;;;;;8.08;2.40;;;;;;;16.78;41.27;100814.78;1709307;84;21761;-77
2022/09/10 02:00:28;;;;;;;10.70;3.05;;;;;;;16.82;40.74;100818.00;1772794;80;21184;-78
2022/09/10 02:03:34;;;;;;;5.78;3.00;;;;;;;16.85;40.87;100817.06;1769765;80;21168;-78
2022/09/10 02:06:43;;;;;;;2.55;1.85;;;;;;;16.93;40.40;100815.17;1783301;80;21133;-77
2022/09/10 02:09:49;;;;;;;15.65;2.55;;;;;;;17.06;40.27;100819.38;1782647;80;21180;-77
2022/09/10 02:12:57;;;;;;;6.75;2.20;;;;;;;17.12;39.74;100815.77;1783148;80;21752;-77
2022/09/10 02:16:09;;;;;;;7.45;2.62;;;;;;;17.15;39.51;100815.38;1781744;80;21259;-77
2022/09/10 02:19:14;;;;;;;9.45;2.62;;;;;;;17.24;39.32;100818.81;1781973;80;21161;-76
2022/09/10 02:22:14;;;;;;;11.38;2.62;;;;;;;17.20;39.46;100813.37;1781664;80;21722;-76
2022/09/10 02:25:08;;;;;;;8.30;2.22;;;;;;;17.16;39.42;100810.70;1782208;80;21508;-77
2022/09/10 02:28:16;;;;;;;6.35;2.87;;;;;;;17.08;39.53;100812.59;1781476;80;21796;-77
2022/09/10 02:31:22;;;;;;;5.92;2.45;;;;;;;16.99;39.44;100809.69;1745088;82;21192;-76
2022/09/10 02:34:29;;;;;;;9.43;2.55;;;;;;;17.11;39.43;100814.92;1746198;82;21476;-76
2022/09/10 02:37:36;;;;;;;5.72;2.30;;;;;;;17.07;39.18;100821.92;1746325;82;21196;-76
2022/09/10 02:40:42;;;;;;;7.60;2.67;;;;;;;16.79;39.48;100819.24;1745773;82;21192;-76
2022/09/10 02:43:47;;;;;;;4.35;2.45;;;;;;;16.69;39.75;100828.41;1752190;80;21194;-75
2022/09/10 02:46:54;;;;;;;6.80;2.75;;;;;;;16.89;39.37;100818.02;1768167;81;21224;-77
2022/09/10 02:50:01;;;;;;;7.15;2.83;;;;;;;17.03;39.11;100809.61;1766870;80;21669;-77
2022/09/10 02:53:09;;;;;;;10.20;2.92;;;;;;;17.06;39.09;100810.55;1766200;81;21190;-77
2022/09/10 02:56:20;;;;;;;4.87;2.70;;;;;;;16.76;39.42;100805.86;1767845;81;21190;-76
2022/09/10 02:59:27;;;;;;;5.75;2.25;;;;;;;16.77;39.56;100811.70;1756307;80;21192;-77
2022/09/10 03:02:35;;;;;;;8.93;2.92;;;;;;;16.76;39.69;100816.06;1744171;82;21195;-77
2022/09/10 03:05:41;;;;;;;6.20;2.65;;;;;;;16.61;39.80;100821.16;1742863;82;21653;-77
2022/09/10 03:08:47;;;;;;;6.72;2.55;;;;;;;16.61;39.99;100817.55;1742892;82;21240;-77
2022/09/10 03:11:54;;;;;;;7.65;2.30;;;;;;;16.54;40.09;100823.55;1744317;82;21162;-77
2022/09/10 03:14:59;;;;;;;4.78;2.33;;;;;;;16.80;39.81;100822.35;1754747;81;21182;-77
2022/09/10 03:18:07;;;;;;;6.90;2.70;;;;;;;16.72;39.67;100821.14;1760238;81;21170;-77
2022/09/10 03:21:28;;;;;;;5.58;3.12;;;;;;;16.89;39.34;100820.28;1758732;81;21230;-76
2022/09/10 03:24:27;;;;;;;6.62;2.65;;;;;;;16.93;39.31;100811.88;1759352;81;21203;-77
2022/09/10 03:27:20;;;;;;;10.28;2.65;;;;;;;16.82;39.38;100809.17;1760389;81;21400;-78
2022/09/10 03:30:07;;;;;;;7.55;2.72;;;;;;;16.76;39.59;100814.68;1771320;79;21531;-78
2022/09/10 03:33:01;;;;;;;6.35;2.65;;;;;;;16.67;39.71;100821.39;1775260;81;21170;-78
2022/09/10 03:36:06;;;;;;;5.97;2.47;;;;;;;16.79;39.55;100819.77;1775231;81;21192;-78
2022/09/10 03:39:13;;;;;;;5.30;2.45;;;;;;;16.93;39.36;100816.02;1775256;79;21236;-75
2022/09/10 03:42:18;;;;;;;7.28;2.52;;;;;;;16.93;39.05;100811.88;1775365;81;21173;-76
2022/09/10 03:45:24;;;;;;;7.97;2.42;;;;;;;16.91;39.07;100804.86;1774235;81;21161;-76
2022/09/10 03:48:30;;;;;;;5.08;2.33;;;;;;;16.38;40.00;100814.21;1775234;81;21158;-77
2022/09/10 03:51:36;;;;;;;4.03;2.45;;;;;;;16.28;40.12;100814.57;1775197;81;21726;-77
2022/09/10 03:54:41;;;;;;;11.53;2.65;;;;;;;16.17;40.46;100822.00;1774468;81;21193;-77
2022/09/10 03:57:47;;;;;;;5.50;2.10;;;;;;;15.87;40.95;100828.23;1775277;80;21209;-76
2022/09/10 04:00:52;;;;;;;5.40;2.25;;;;;;;16.14;40.84;100838.45;1774380;81;21197;-76
2022/09/10 04:04:03;;;;;;;7.72;2.62;;;;;;;16.22;40.48;100834.67;1773731;81;21217;-76
2022/09/10 04:07:10;;;;;;;4.25;2.37;;;;;;;16.26;40.66;100827.70;1774254;81;21212;-76
2022/09/10 04:10:17;;;;;;;4.33;2.47;;;;;;;16.33;40.78;100836.38;1774527;81;21184;-84
2022/09/10 04:13:23;;;;;;;2.60;2.08;;;;;;;16.33;40.94;100842.42;1752162;81;21168;-84
2022/09/10 04:16:30;;;;;;;5.22;2.42;;;;;;;16.44;40.71;100847.37;1744630;82;21220;-85
2022/09/10 04:19:39;;;;;;;6.17;2.33;;;;;;;16.34;40.91;100842.73;1744318;82;21212;-86
2022/09/10 04:22:46;;;;;;;4.28;2.55;;;;;;;16.32;40.82;100848.44;1744901;82;21232;-85
2022/09/10 04:25:52;;;;;;;9.88;2.40;;;;;;;16.30;40.63;100853.85;1744898;82;21243;-86
2022/09/10 04:28:58;;;;;;;3.30;2.20;;;;;;;16.26;40.82;100850.63;1744197;81;21200;-85
2022/09/10 04:32:03;;;;;;;5.35;1.90;;;;;;;16.20;40.90;100846.45;1744093;82;21196;-86
2022/09/10 04:35:08;;;;;;;5.50;2.37;;;;;;;16.20;40.69;100843.69;1743803;82;21176;-84
2022/09/10 04:38:14;;;;;;;5.35;1.98;;;;;;;16.18;40.75;100845.25;1744791;82;21730;-85
2022/09/10 04:41:19;;;;;;;5.50;2.10;;;;;;;16.21;41.00;100845.39;1744764;82;21239;-85
2022/09/10 04:44:24;;;;;;;4.85;2.10;;;;;;;16.22;41.02;100851.23;1762967;81;21188;-86
2022/09/10 04:47:29;;;;;;;6.30;2.33;;;;;;;16.27;41.14;100859.77;1763356;81;21766;-84
2022/09/10 04:50:35;;;;;;;6.28;2.12;;;;;;;16.25;41.02;100859.12;1761845;81;21200;-85
2022/09/10 04:53:44;;;;;;;9.43;2.52;;;;;;;16.26;41.22;100860.30;1762664;81;21184;-84
2022/09/10 04:56:52;;;;;;;5.85;1.90;;;;;;;16.31;41.43;100862.45;1761651;81;21254;-84
2022/09/10 04:59:52;;;;;;;7.85;2.40;;;;;;;16.23;41.33;100864.85;1722707;82;21200;-85
2022/09/10 05:02:59;;;;;;;7.30;2.20;;;;;;;16.21;41.50;100864.19;1745409;82;21196;-85
2022/09/10 05:06:07;;;;;;;3.47;2.17;;;;;;;16.20;41.53;100866.63;1747322;82;21172;-85
2022/09/10 05:09:12;;;;;;;3.87;2.12;;;;;;;16.27;41.39;100873.56;1747008;82;21204;-84
2022/09/10 05:12:18;;;;;;;6.10;2.52;;;;;;;16.38;41.45;100868.05;1755920;80;21710;-85
2022/09/10 05:15:24;;;;;;;5.78;2.30;;;;;;;16.39;41.52;100869.22;1783857;80;21785;-85
2022/09/10 05:18:28;;;;;;;7.92;2.80;;;;;;;16.51;41.17;100875.02;1783772;80;21176;-85
2022/09/10 05:21:34;;;;;;;5.17;2.52;;;;;;;16.50;40.98;100884.36;1783615;80;21240;-85
2022/09/10 05:24:39;;;;;;;7.10;2.12;;;;;;;16.38;41.32;100879.94;1783236;80;21224;-85
2022/09/10 05:27:45;;;;;;;8.90;2.00;;;;;;;16.34;41.29;100880.01;1776619;80;21170;-84
2022/09/10 05:30:51;;;;;;;6.33;1.75;;;;;;;16.38;41.36;100870.80;1768296;81;21237;-85
2022/09/10 05:34:00;;;;;;;11.22;1.95;;;;;;;16.37;41.53;100872.69;1767907;81;21233;-85
2022/09/10 05:37:07;;;;;;;5.37;2.47;;;;;;;16.32;41.69;100875.20;1766872;81;21198;-84
2022/09/10 05:40:15;;;;;;;10.70;2.35;;;;;;;16.39;41.89;100871.13;1767097;81;21226;-85
2022/09/10 05:43:21;;;;;;;4.78;2.15;;;;;;;16.35;42.10;100867.91;1765355;80;21192;-86
2022/09/10 05:46:27;;;;;;;8.08;3.45;;;;;;;16.40;42.12;100868.16;1752802;82;21589;-86
2022/09/10 05:49:36;;;;;;;9.05;3.10;;;;;;;16.34;42.73;100869.81;1752598;82;21770;-86
2022/09/10 05:52:41;;;;;;;8.15;3.30;;;;;;;16.46;42.03;100871.48;1752809;80;21220;-85
2022/09/10 05:55:40;;;;;;;8.10;3.70;;;;;;;16.44;41.91;100870.84;1765594;81;21195;-85
2022/09/10 05:58:46;;;;;;;7.37;3.35;;;;;;;16.28;42.09;100868.40;1765812;81;21207;-86
2022/09/10 06:01:47;;;;;;;9.80;2.77;;;;;;;16.51;41.92;100881.92;1765391;81;21203;-85
2022/09/10 06:04:53;;;;;;;6.12;2.55;;;;;;;16.51;41.59;100881.92;1764873;81;21187;-84
2022/09/10 06:08:00;;;;;;;8.45;2.05;;;;;;;16.41;41.73;100882.80;1765477;81;21152;-85
2022/09/10 06:11:10;;;;;;;5.70;2.35;;;;;;;16.39;41.67;100883.02;1766170;81;21551;-84
2022/09/10 06:14:16;;;;;;;7.15;2.25;;;;;;;16.39;41.76;100884.93;1766326;81;21765;-85
2022/09/10 06:17:20;;;;;;;7.50;2.70;;;;;;;16.33;41.81;100889.34;1765452;81;21549;-85
2022/09/10 06:20:26;;;;;;;6.72;2.60;;;;;;;16.51;41.38;100892.97;1743434;80;21200;-84
2022/09/10 06:23:32;;;;;;;3.33;1.95;;;;;;;16.53;41.30;100890.34;1764982;80;21153;-84
2022/09/10 06:26:38;;;;;;;8.20;2.55;;;;;;;16.65;41.03;100888.39;1767128;80;21138;-84
2022/09/10 06:29:46;;;;;;;5.25;2.60;;;;;;;16.71;41.25;100884.31;1773515;80;21722;-84
2022/09/10 06:32:51;;;;;;;4.40;1.75;;;;;;;16.63;41.33;100887.76;1763813;80;21752;-84
2022/09/10 06:36:05;;;;;;;5.45;2.33;;;;;;;16.69;41.19;100881.41;1766286;80;21188;-85
2022/09/10 06:39:13;;;;;;;6.20;2.55;;;;;;;16.67;41.15;100876.10;1771957;80;21181;-84
2022/09/10 06:42:22;;;;;;;8.50;2.30;;;;;;;16.71;41.14;100880.17;1747447;82;21188;-85
2022/09/10 06:45:36;;;;;;;3.85;2.30;;;;;;;16.79;40.74;100877.78;1745609;82;21195;-84
2022/09/10 06:48:46;;;;;;;9.05;2.33;;;;;;;16.86;40.72;100878.69;1765742;80;21209;-84
2022/09/10 06:51:55;;;;;;;7.53;2.55;;;;;;;16.97;40.41;100873.96;1766992;80;21164;-84
2022/09/10 06:55:00;;;;;;;6.50;2.45;;;;;;;17.11;40.23;100888.70;1774934;79;21176;-84
2022/09/10 06:58:10;;;;;;;7.47;2.72;;;;;;;17.05;40.52;100893.14;1766111;80;21164;-83
2022/09/10 07:01:20;;;;;;;6.05;1.80;;;;;;;17.11;40.12;100888.17;1767715;80;21156;-83
2022/09/10 07:04:26;;;;;;;5.80;2.62;;;;;;;17.24;40.43;100893.45;1765421;80;21180;-83
2022/09/10 07:07:32;;;;;;;7.12;3.00;;;;;;;17.32;39.93;100897.42;1744816;82;21247;-84
2022/09/10 07:10:38;;;;;;;2.92;2.05;;;;;;;17.27;39.89;100894.43;1743158;82;21224;-84
2022/09/10 07:13:38;;;;;;;8.15;2.55;;;;;;;17.26;40.21;100889.41;1739865;82;21208;-84
2022/09/10 07:16:34;;;;;;;5.50;2.10;;;;;;;17.26;40.23;100894.94;1743708;82;21686;-84
2022/09/10 07:19:40;;;;;;;4.03;2.17;;;;;;;17.24;40.35;100885.16;1743478;82;21212;-84
2022/09/10 07:22:49;;;;;;;4.67;2.30;;;;;;;17.28;40.13;100887.84;1742864;82;21184;-83
2022/09/10 07:25:55;;;;;;;7.17;2.62;;;;;;;17.26;39.96;100892.70;1746528;82;21200;-84
2022/09/10 07:29:05;;;;;;;7.80;2.40;;;;;;;17.03;40.26;100893.89;1742035;82;21223;-83
2022/09/10 07:32:10;;;;;;;7.78;2.67;;;;;;;17.18;40.06;100898.42;1746838;82;21160;-84
2022/09/10 07:35:18;;;;;;;5.28;2.80;;;;;;;17.13;40.43;100896.81;1742998;82;21748;-85
2022/09/10 07:38:19;;;;;;;8.03;2.42;;;;;;;17.12;40.45;100895.93;1740611;82;21744;-84
2022/09/10 07:41:14;;;;;;;8.75;2.72;;;;;;;17.14;40.52;100899.36;1742789;82;21156;-85
2022/09/10 07:44:21;;;;;;;5.35;3.00;;;;;;;17.25;40.23;100910.35;1743921;82;21172;-83
2022/09/10 07:47:27;;;;;;;9.58;2.98;;;;;;;17.04;40.56;100912.70;1744937;82;21210;-85
2022/09/10 07:50:33;;;;;;;11.70;3.15;;;;;;;17.38;40.10;100920.09;1744256;82;21207;-85
2022/09/10 07:53:40;;;;;;;6.60;3.00;;;;;;;17.45;39.97;100914.05;1745373;82;21181;-85
2022/09/10 07:56:43;;;;;;;8.78;2.77;;;;;;;17.60;39.53;100907.84;1746183;82;21192;-84
2022/09/10 07:59:36;;;;;;;6.40;2.87;;;;;;;17.51;39.77;100894.41;1745810;82;21243;-84
2022/09/10 08:02:24;;;;;;;4.40;2.42;;;;;;;17.63;39.72;100892.20;1745713;82;21852;-84
2022/09/10 08:05:18;;;;;;;6.00;3.12;;;;;;;17.53;40.16;100888.98;1744994;82;21562;-85
2022/09/10 08:08:24;;;;;;;6.33;2.92;;;;;;;17.63;39.84;100893.58;1745822;82;21757;-85
2022/09/10 08:11:33;;;;;;;6.97;2.70;;;;;;;17.27;40.58;100878.69;1745977;82;21216;-85
2022/09/10 08:14:41;;;;;;;6.50;2.27;;;;;;;17.77;40.17;100874.28;1745049;82;21212;-85
2022/09/10 08:17:46;;;;;;;14.73;2.70;;;;;;;17.77;40.77;100871.52;1746209;82;21172;-84
2022/09/10 08:20:56;;;;;;;4.97;2.52;;;;;;;17.69;41.20;100878.09;1745867;82;21196;-85
2022/09/10 08:24:01;;;;;;;7.40;2.37;;;;;;;17.80;41.41;100869.19;1707856;82;21255;-85
2022/09/10 08:27:10;;;;;;;10.05;2.90;;;;;;;17.70;42.13;100874.25;1689027;85;21184;-84
2022/09/10 08:30:09;;;;;;;7.87;2.37;;;;;;;17.58;42.45;100869.84;1689362;85;21551;-85
2022/09/10 08:33:17;;;;;;;8.58;2.33;;;;;;;17.57;42.51;100858.47;1690150;85;21784;-85
2022/09/10 08:36:22;;;;;;;7.50;2.72;;;;;;;17.39;43.35;100860.95;1689477;85;21216;-84
2022/09/10 08:39:33;;;;;;;8.70;2.75;;;;;;;17.49;43.73;100850.88;1699312;82;21230;-85
2022/09/10 08:42:55;;;;;;;8.00;2.58;;;;;;;17.60;43.15;100848.91;1709842;84;21176;-84
2022/09/10 08:45:53;;;;;;;5.35;2.40;;;;;;;17.68;43.34;100849.23;1709848;84;21697;-84
2022/09/10 08:48:46;;;;;;;9.65;2.80;;;;;;;17.56;43.49;100853.16;1710035;84;21203;-84
2022/09/10 08:52:02;;;;;;;6.47;2.43;;;;;;;17.56;43.57;100853.16;1709194;84;21240;-77
2022/09/10 08:55:19;;;;;;;6.78;2.33;;;;;;;17.56;44.66;100854.00;1708791;82;21843;-77
2022/09/10 08:58:28;;;;;;;6.28;2.17;;;;;;;17.51;44.69;100847.40;1709780;84;21181;-77
2022/09/10 09:01:57;;;;;;;12.90;2.75;;;;;;;17.46;44.70;100852.17;1709686;84;21628;-77
2022/09/10 09:05:11;;;;;;;4.67;2.50;;;;;;;17.45;44.70;100850.97;1708680;84;21216;-77
2022/09/10 09:08:20;;;;;;;4.45;1.90;;;;;;;17.32;43.87;100844.36;1725446;82;21205;-77
2022/09/10 09:11:43;;;;;;;9.20;2.50;;;;;;;17.44;43.27;100841.83;1733358;82;21169;-77
2022/09/10 09:14:56;;;;;;;5.60;2.65;;;;;;;17.56;42.88;100833.79;1733301;82;21208;-77
2022/09/10 09:18:14;;;;;;;5.78;2.65;;;;;;;17.75;42.41;100828.85;1733418;82;21212;-78
2022/09/10 09:21:24;;;;;;;5.40;2.37;;;;;;;17.73;42.56;100827.31;1733189;82;21189;-78
2022/09/10 09:25:04;;;;;;;4.70;2.17;;;;;;;17.77;41.98;100823.09;1749183;81;21215;-78
2022/09/10 09:28:11;;;;;;;9.38;1.95;;;;;;;17.84;41.95;100815.67;1767350;81;21217;-76
2022/09/10 09:31:21;;;;;;;9.10;2.52;;;;;;;17.99;41.52;100812.16;1769405;81;21762;-77
2022/09/10 09:34:49;;;;;;;4.40;1.77;;;;;;;17.90;41.50;100802.89;1769369;81;21169;-76
2022/09/10 09:37:55;;;;;;;11.12;2.20;;;;;;;17.97;40.97;100799.05;1769647;81;21193;-77
2022/09/10 09:41:06;;;;;;;6.47;2.20;;;;;;;18.04;40.62;100806.83;1769332;81;21746;-77
2022/09/10 09:44:26;;;;;;;;;;;;;;;18.32;40.46;100800.21;1772021;81;21201;-77
2022/09/10 09:47:32;;;;;;;6.87;2.20;;;;;;;18.57;39.70;100799.83;1769911;81;20224;-77
2022/09/10 09:50:37;;;;;;;7.12;2.40;;;;;;;18.57;39.05;100807.29;1769666;81;21173;-77
2022/09/10 09:53:43;;;;;;;11.05;2.40;;;;;;;18.59;39.04;100794.94;1768282;81;21735;-77
2022/09/10 09:56:54;;;;;;;7.58;2.08;;;;;;;18.67;38.62;100787.44;1759007;81;21157;-76
2022/09/10 10:00:00;;;;;;;17.32;2.30;;;;;;;18.84;38.32;100785.94;1759376;81;21193;-77
2022/09/10 10:03:12;;;;;;;5.87;2.40;;;;;;;19.10;38.03;100788.60;1759629;81;21145;-77
2022/09/10 10:06:18;;;;;;;11.65;2.90;;;;;;;19.25;37.63;100793.00;1759455;81;21189;-77
2022/09/10 10:09:32;;;;;;;7.47;2.40;;;;;;;19.22;37.54;100787.89;1753315;79;21483;-77
2022/09/10 10:12:36;;;;;;;11.00;2.70;;;;;;;19.23;37.71;100802.91;1744340;82;21217;-77
2022/09/10 10:15:45;;;;;;;6.85;3.42;;;;;;;19.19;38.43;100800.80;1744514;82;21208;-77
2022/09/10 10:18:50;;;;;;;7.92;3.27;;;;;;;19.35;37.99;100796.14;1744252;82;21177;-77
2022/09/10 10:21:58;;;;;;;25.27;3.55;;;;;;;19.41;37.65;100791.08;1744434;82;21184;-77
2022/09/10 10:25:03;;;;;;;9.65;2.87;;;;;;;19.45;37.92;100791.50;1754638;81;21179;-77
2022/09/10 10:28:09;;;;;;;13.40;2.77;;;;;;;19.35;37.79;100791.98;1760341;81;21170;-77
2022/09/10 10:31:13;;;;;;;3.50;2.22;;;;;;;19.24;38.13;100789.89;1759997;81;21171;-78
2022/09/10 10:34:38;;;;;;;5.50;2.33;;;;;;;19.36;37.55;100785.36;1760279;81;21246;-77
2022/09/10 10:37:50;;;;;;;7.05;2.60;;;;;;;19.29;37.97;100774.82;1760254;81;21249;-77
2022/09/10 10:41:15;;;;;;;5.00;2.52;;;;;;;19.32;38.04;100767.45;1719158;82;21716;-77
2022/09/10 10:44:57;;;;;;;8.33;2.92;;;;;;;19.54;37.64;100760.48;1706894;84;21243;-77
2022/09/10 10:48:39;;;;;;;11.03;2.50;;;;;;;19.76;37.04;100749.02;1706362;84;21209;-77
2022/09/10 10:52:14;;;;;;;11.97;2.55;;;;;;;19.75;37.11;100742.63;1706776;84;21169;-77
2022/09/10 10:55:59;;;;;;;12.30;2.70;;;;;;;19.85;37.12;100753.22;1700262;82;21217;-78
2022/09/10 10:59:43;;;;;;;5.60;2.80;;;;;;;19.87;37.04;100749.69;1698471;84;21198;-77
2022/09/10 11:02:59;;;;;;;10.85;3.50;;;;;;;19.82;37.16;100745.36;1697012;84;21237;-77
2022/09/10 11:06:19;;;;;;;16.00;3.70;;;;;;;19.87;37.25;100733.88;1698900;84;21205;-77
2022/09/10 11:09:40;;;;;;;7.83;3.10;;;;;;;20.05;37.01;100740.02;1698589;82;21216;-77
2022/09/10 11:12:51;;;;;;;5.42;2.95;;;;;;;20.20;36.90;100735.49;1698606;84;21173;-77
2022/09/10 11:16:06;;;;;;;11.97;2.83;;;;;;;20.42;36.66;100736.75;1698023;84;21169;-77
2022/09/10 11:19:40;;;;;;;9.03;2.65;;;;;;;20.47;36.84;100733.83;1698272;84;21196;-77
2022/09/10 11:22:54;;;;;;;10.40;2.72;;;;;;;20.54;36.54;100727.12;1676810;84;21283;-77
2022/09/10 11:26:19;;;;;;;13.68;3.02;;;;;;;20.75;36.24;100724.43;1698059;84;21311;-77
2022/09/10 11:29:54;;;;;;;12.20;3.20;;;;;;;20.94;35.98;100714.13;1723087;82;21192;-84
2022/09/10 11:33:09;;;;;;;13.03;2.75;;;;;;;20.94;35.77;100716.91;1706623;84;21161;-76
2022/09/10 11:36:33;;;;;;;6.17;2.83;;;;;;;20.97;36.04;100715.03;1706093;84;21588;-77
2022/09/10 11:39:54;;;;;;;8.20;2.00;;;;;;;20.92;35.64;100709.33;1697724;82;21221;-77
2022/09/10 11:43:03;;;;;;;6.08;2.95;;;;;;;21.00;35.98;100709.01;1706733;84;21212;-76
2022/09/10 11:46:12;;;;;;;12.88;2.47;;;;;;;21.08;35.88;100697.56;1685946;84;21484;-77
2022/09/10 11:49:25;;;;;;;10.03;2.40;;;;;;;21.04;35.99;100692.16;1706109;84;22071;-76
2022/09/10 11:52:27;;;;;;;4.53;2.10;;;;;;;21.16;35.95;100681.91;1693830;82;21399;-77
2022/09/10 11:55:51;;;;;;;8.70;2.67;;;;;;;21.34;35.55;100684.36;1718702;81;21189;-77
2022/09/10 11:59:17;;;;;;;8.10;2.50;;;;;;;21.35;35.38;100672.98;1703321;83;21193;-77
2022/09/10 12:02:51;;;;;;;8.05;3.00;;;;;;;21.43;35.44;100666.23;1736307;82;21201;-76
2022/09/10 12:06:13;;;;;;;8.95;3.00;;;;;;;21.37;35.63;100665.80;1725122;82;21177;-77
2022/09/10 12:09:24;;;;;;;7.35;3.60;;;;;;;21.47;35.41;100652.70;1710965;82;22139;-77
2022/09/10 12:12:37;;;;;;;8.50;3.40;;;;;;;21.54;35.14;100651.47;1721041;83;21174;-77
2022/09/10 12:15:43;;;;;;;10.03;3.12;;;;;;;21.68;35.28;100647.92;1706356;82;21268;-77
2022/09/10 12:18:51;;;;;;;8.35;3.15;;;;;;;21.76;34.56;100639.77;1704260;82;21862;-77
2022/09/10 12:22:01;;;;;;;8.68;2.92;;;;;;;21.84;34.80;100629.11;1706283;84;21806;-77
2022/09/10 12:25:12;;;;;;;10.68;3.25;;;;;;;21.82;34.25;100626.25;1715006;82;21198;-76
2022/09/10 12:28:48;;;;;;;7.05;3.02;;;;;;;21.89;34.16;100617.25;1720943;83;21792;-76
2022/09/10 12:32:27;;;;;;;7.10;3.05;;;;;;;21.97;33.99;100605.71;1720711;83;21170;-77
2022/09/10 12:35:43;;;;;;;6.30;2.75;;;;;;;22.10;33.87;100608.23;1720663;83;21248;-76
2022/09/10 12:39:15;;;;;;;8.80;3.27;;;;;;;22.18;33.50;100607.89;1720773;82;21214;-76
2022/09/10 12:42:44;;;;;;;14.25;3.47;;;;;;;22.36;33.64;100609.67;1720874;83;21154;-76
2022/09/10 12:46:21;;;;;;;7.65;3.80;;;;;;;22.54;33.39;100610.59;1720661;83;22122;-76
2022/09/10 12:49:27;;;;;;;8.90;3.80;;;;;;;22.74;33.27;100604.56;1704813;83;21206;-77
2022/09/10 12:53:00;;;;;;;9.35;3.62;;;;;;;22.87;32.62;100607.05;1721375;83;21691;-77
2022/09/10 12:56:10;;;;;;;5.95;3.33;;;;;;;22.91;32.74;100603.55;1720840;82;21242;-76
2022/09/10 12:59:35;;;;;;;12.88;3.50;;;;;;;22.94;31.97;100599.39;1721131;83;21205;-77
2022/09/10 13:02:43;;;;;;;7.22;3.33;;;;;;;22.93;31.97;100598.55;1724756;82;21153;-77
2022/09/10 13:05:59;;;;;;;13.68;3.40;;;;;;;23.00;32.07;100587.22;1716734;82;21722;-77
2022/09/10 13:09:04;;;;;;;5.30;3.12;;;;;;;23.07;31.89;100579.55;1717855;82;21767;-77
2022/09/10 13:12:08;;;;;;;9.10;3.60;;;;;;;23.10;32.16;100580.97;1721207;82;21233;-77
2022/09/10 13:15:16;;;;;;;;;;;;;;;23.08;31.82;100581.23;1712233;83;21438;-77
2022/09/10 13:18:35;;;;;;;19.23;3.50;;;;;;;23.20;32.09;100575.59;1711209;84;20187;-77
2022/09/10 13:21:51;;;;;;;17.17;4.10;;;;;;;23.21;31.78;100578.12;1695934;84;21809;-76
2022/09/10 13:25:09;;;;;;;9.95;3.72;;;;;;;23.38;31.60;100568.36;1686645;84;21189;-77
2022/09/10 13:28:41;;;;;;;6.90;3.45;;;;;;;23.42;31.62;100568.67;1689759;85;21205;-77
2022/09/10 13:31:51;;;;;;;10.75;3.90;;;;;;;23.34;31.63;100563.55;1687021;85;21208;-76
2022/09/10 13:35:25;;;;;;;15.90;4.12;;;;;;;23.48;31.56;100562.09;1689336;85;21232;-77
2022/09/10 13:38:52;;;;;;;7.70;4.25;;;;;;;23.57;31.51;100556.38;1689658;85;21188;-77
2022/09/10 13:42:52;;;;;;;14.58;4.17;;;;;;;23.59;31.46;100550.52;1690822;85;21258;-77
2022/09/10 13:46:13;;;;;;;11.97;3.90;;;;;;;23.73;31.20;100551.03;1686067;85;21229;-77
2022/09/10 13:49:28;;;;;;;14.55;3.90;;;;;;;23.94;30.72;100552.98;1690402;85;21203;-75
2022/09/10 13:52:37;;;;;;;15.58;3.67;;;;;;;23.78;30.99;100552.50;1688601;85;21726;-76
2022/09/10 13:55:42;;;;;;;9.83;3.77;;;;;;;23.87;30.83;100555.14;1689420;84;21188;-77
2022/09/10 13:59:03;;;;;;;9.80;3.33;;;;;;;23.81;31.12;100542.22;1689085;85;21781;-77
2022/09/10 14:02:06;;;;;;;11.08;3.70;;;;;;;23.87;31.31;100532.24;1690280;85;21252;-76
2022/09/10 14:05:39;;;;;;;14.33;3.52;;;;;;;23.76;31.33;100530.95;1689596;85;21261;-77
2022/09/10 14:08:48;;;;;;;9.28;3.67;;;;;;;23.71;31.34;100522.82;1690959;85;21208;-77
2022/09/10 14:11:54;;;;;;;28.75;3.87;;;;;;;23.63;31.63;100521.83;1693749;82;21233;-77
2022/09/10 14:15:02;;;;;;;16.65;4.28;;;;;;;23.64;31.63;100521.31;1706124;81;21747;-77
2022/09/10 14:18:07;;;;;;;9.13;3.80;;;;;;;23.71;31.62;100520.55;1738285;82;21162;-77
2022/09/10 14:21:14;;;;;;;12.70;3.55;;;;;;;23.66;31.76;100518.53;1737973;82;21205;-77
2022/09/10 14:24:52;;;;;;;11.50;3.47;;;;;;;23.59;31.68;100517.02;1750047;79;21757;-77
2022/09/10 14:27:58;;;;;;;17.50;4.50;;;;;;;23.53;31.94;100511.08;1738912;82;21236;-77
2022/09/10 14:31:32;;;;;;;8.18;3.95;;;;;;;23.51;32.08;100509.92;1747909;81;21841;-76
2022/09/10 14:34:38;;;;;;;14.83;4.65;;;;;;;23.54;31.97;100518.34;1757420;81;21169;-77
2022/09/10 14:37:44;;;;;;;11.35;5.15;;;;;;;23.64;31.80;100510.98;1769246;81;21258;-77
2022/09/10 14:40:51;;;;;;;16.62;4.20;;;;;;;23.53;32.09;100506.33;1763978;80;21220;-77
2022/09/10 14:43:50;;;;;;;10.82;4.10;;;;;;;23.60;32.10;100505.58;1758666;81;21787;-76
2022/09/10 14:47:16;;;;;;;8.45;4.30;;;;;;;23.69;32.05;100504.63;1767455;81;21166;-77